Time;durP1;ratioP1;P1;durP2;ratioP2;P2;SDS_P1;SDS_P2;PMS_P1;PMS_P2;Temp;Humidity;BMP_temperature;BMP_pressure;BME280_temperature;BME280_humidity;BME280_pressure;Samples;Min_cycle;Max_cycle;Signal;HPM_P1;HPM_P2
2022/01/13 00:00:01;;;;;;;70.20;29.10;;;4.80;99.90;;;2.76;100.00;103026.19;6211544;23;20036;-80
2022/01/13 00:02:32;;;;;;;75.30;29.88;;;4.80;99.90;;;2.76;100.00;103026.19;6210133;23;20104;-80
2022/01/13 00:05:00;;;;;;;66.15;28.75;;;4.80;99.90;;;2.79;100.00;103024.25;6211439;23;20435;-80
2022/01/13 00:07:28;;;;;;;83.70;31.00;;;4.80;99.90;;;2.73;100.00;103025.41;6211240;23;20046;-80
2022/01/13 00:09:56;;;;;;;85.10;29.92;;;4.80;99.90;;;2.63;100.00;103026.78;6210913;23;20096;-80
2022/01/13 00:12:26;;;;;;;79.72;29.08;;;4.80;99.90;;;2.61;100.00;103028.69;6210089;23;20107;-79
2022/01/13 00:15:21;;;;;;;84.57;29.58;;;4.80;99.90;;;2.55;100.00;103023.56;6211106;23;20099;-80
2022/01/13 00:18:08;;;;;;;77.38;30.13;;;4.80;99.90;;;2.48;100.00;103022.13;6211200;23;20083;-80
2022/01/13 00:23:46;;;;;;;81.20;29.90;;;4.70;99.90;;;2.64;100.00;103035.72;6210449;23;20451;-80
2022/01/13 00:26:19;;;;;;;75.78;29.67;;;4.70;99.90;;;2.62;100.00;103033.09;6211411;23;20024;-80
2022/01/13 00:28:49;;;;;;;79.32;30.30;;;4.70;99.90;;;2.59;100.00;103038.63;6211175;23;20021;-80
2022/01/13 00:31:23;;;;;;;90.57;31.83;;;4.70;99.90;;;2.53;100.00;103041.56;6210483;23;20059;-80
2022/01/13 00:33:54;;;;;;;80.53;31.10;;;4.70;99.90;;;2.49;100.00;103038.16;6211070;23;20020;-80
2022/01/13 00:36:22;;;;;;;80.82;31.05;;;4.70;99.90;;;2.52;100.00;103050.59;6211211;23;20120;-80
2022/01/13 00:38:51;;;;;;;83.72;31.70;;;4.60;99.90;;;2.43;100.00;103042.94;6211029;23;20020;-80
2022/01/13 00:41:19;;;;;;;84.63;31.40;;;4.70;99.90;;;2.53;100.00;103033.50;6210035;23;20052;-80
2022/01/13 00:43:47;;;;;;;89.60;31.80;;;4.70;99.90;;;2.42;100.00;103041.19;6210589;23;20067;-80
2022/01/13 00:46:21;;;;;;;88.35;33.03;;;4.70;99.90;;;2.44;100.00;103040.19;6210962;23;20027;-80
2022/01/13 00:48:49;;;;;;;82.55;30.92;;;4.70;99.90;;;2.57;100.00;103040.50;6210661;23;20359;-80
2022/01/13 00:51:16;;;;;;;82.22;31.60;;;4.70;99.90;;;2.58;100.00;103042.25;6183217;23;20035;-80
2022/01/13 00:53:43;;;;;;;86.88;32.65;;;4.70;99.90;;;2.63;100.00;103048.28;6210785;23;20016;-80
2022/01/13 00:56:12;;;;;;;82.43;31.75;;;4.60;99.90;;;2.60;100.00;103050.25;6211010;23;20020;-80
2022/01/13 00:58:40;;;;;;;83.35;31.40;;;4.60;99.90;;;2.60;100.00;103048.41;6210547;23;20181;-80
2022/01/13 01:01:08;;;;;;;83.47;31.20;;;4.60;99.90;;;2.61;100.00;103043.91;6210023;23;20523;-80
2022/01/13 01:03:36;;;;;;;87.10;31.67;;;4.60;99.90;;;2.56;100.00;103043.28;6210623;23;20051;-80
2022/01/13 01:06:06;;;;;;;83.68;32.65;;;4.60;99.90;;;2.58;100.00;103044.94;6211006;23;20020;-80
2022/01/13 01:08:34;;;;;;;88.68;33.13;;;4.60;99.90;;;2.55;100.00;103045.06;6210548;23;20020;-79
2022/01/13 01:11:03;;;;;;;79.18;32.75;;;4.60;99.90;;;2.57;100.00;103045.00;6209766;23;20019;-80
2022/01/13 01:13:34;;;;;;;91.18;33.00;;;4.70;99.90;;;2.51;100.00;103051.53;6210391;23;20031;-79
2022/01/13 01:16:06;;;;;;;84.63;34.08;;;4.70;99.90;;;2.55;100.00;103047.75;6210837;23;20020;-80
2022/01/13 01:18:40;;;;;;;87.43;33.08;;;4.70;99.90;;;2.50;100.00;103044.41;6210498;23;20025;-79
2022/01/13 01:21:34;;;;;;;83.72;32.20;;;4.70;99.90;;;2.62;100.00;103054.59;6209607;23;20044;-80
2022/01/13 01:26:58;;;;;;;91.65;32.50;;;4.70;99.90;;;2.74;100.00;103043.28;6156394;23;20024;-80
2022/01/13 01:29:31;;;;;;;91.22;33.00;;;4.70;99.90;;;2.80;100.00;103034.06;6210438;23;20396;-80
2022/01/13 01:32:00;;;;;;;91.57;32.90;;;4.70;99.90;;;2.85;100.00;103039.22;6209494;23;20048;-80
2022/01/13 01:34:43;;;;;;;95.20;32.45;;;4.70;99.90;;;2.85;100.00;103034.72;6210421;23;20039;-80
2022/01/13 01:37:15;;;;;;;89.88;34.60;;;4.70;99.90;;;2.88;100.00;103039.94;6210735;23;20048;-80
2022/01/13 01:39:43;;;;;;;87.75;32.55;;;4.70;99.90;;;2.73;100.00;103044.22;6210543;23;20478;-80
2022/01/13 01:42:11;;;;;;;91.90;31.98;;;4.70;99.90;;;2.61;100.00;103055.56;6209550;23;20481;-79
2022/01/13 01:44:43;;;;;;;85.57;33.10;;;4.70;99.90;;;2.59;100.00;103060.13;6210464;23;20023;-80
2022/01/13 01:47:13;;;;;;;78.32;30.70;;;4.70;99.90;;;2.60;100.00;103055.63;6210569;23;20024;-80
2022/01/13 01:49:43;;;;;;;81.97;30.40;;;4.70;99.90;;;2.61;100.00;103060.03;6210090;23;20024;-80
2022/01/13 01:52:13;;;;;;;91.47;31.92;;;4.70;99.90;;;2.68;100.00;103058.81;6209395;23;20030;-80
2022/01/13 01:54:41;;;;;;;83.95;32.90;;;4.70;99.90;;;2.64;100.00;103058.09;6210064;23;20078;-80
2022/01/13 01:57:09;;;;;;;80.88;31.48;;;4.70;99.90;;;2.63;100.00;103060.88;6209920;23;20024;-80
2022/01/13 01:59:40;;;;;;;88.03;31.98;;;4.70;99.90;;;2.66;100.00;103061.56;6210058;23;20035;-80
2022/01/13 02:02:10;;;;;;;84.90;33.28;;;4.70;99.90;;;2.70;100.00;103063.22;6209240;23;20071;-80
2022/01/13 02:04:38;;;;;;;75.25;30.13;;;4.80;99.90;;;2.66;100.00;103066.94;6210325;23;20012;-79
2022/01/13 02:07:07;;;;;;;77.72;31.98;;;4.70;99.90;;;2.66;100.00;103058.88;6210153;23;20418;-80
2022/01/13 02:09:38;;;;;;;89.35;32.85;;;4.70;99.90;;;2.73;100.00;103062.19;6210070;23;20466;-80
2022/01/13 02:12:10;;;;;;;86.28;32.40;;;4.70;99.90;;;2.78;100.00;103064.66;6209359;23;20455;-80
2022/01/13 02:14:49;;;;;;;84.28;31.73;;;4.70;99.90;;;2.81;100.00;103075.28;6210349;23;20046;-80
2022/01/13 02:17:24;;;;;;;78.43;32.83;;;4.70;99.90;;;2.78;100.00;103070.91;6210069;23;20028;-80
2022/01/13 02:19:54;;;;;;;85.60;33.53;;;4.70;99.90;;;2.75;100.00;103062.97;6210083;23;20025;-80
2022/01/13 02:22:24;;;;;;;86.53;32.00;;;4.70;99.90;;;2.72;100.00;103055.03;6208942;23;20099;-80
2022/01/13 02:24:51;;;;;;;81.60;31.15;;;4.70;99.90;;;2.78;100.00;103059.25;6210238;23;20020;-80
2022/01/13 02:27:19;;;;;;;84.32;33.80;;;4.70;99.90;;;2.79;100.00;103061.88;6210047;23;20025;-80
2022/01/13 02:29:46;;;;;;;81.97;33.38;;;4.70;99.90;;;2.74;100.00;103058.53;6209749;23;20041;-79
2022/01/13 02:32:14;;;;;;;92.63;36.38;;;4.70;99.90;;;2.74;100.00;103064.81;6208478;23;20099;-79
2022/01/13 02:34:41;;;;;;;91.00;34.90;;;4.70;99.90;;;2.79;100.00;103058.34;6210019;23;20055;-80
2022/01/13 02:37:09;;;;;;;90.72;36.38;;;4.70;99.90;;;2.75;100.00;103060.28;6209719;23;20100;-79
2022/01/13 02:39:38;;;;;;;96.07;36.67;;;4.70;99.90;;;2.70;100.00;103047.06;6210077;23;20017;-80
2022/01/13 02:42:12;;;;;;;95.32;37.17;;;4.70;99.90;;;2.69;100.00;103042.63;6209233;23;20129;-80
2022/01/13 02:44:49;;;;;;;96.55;36.85;;;4.70;99.90;;;2.68;100.00;103042.69;6210373;23;20043;-80
2022/01/13 02:47:37;;;;;;;87.22;35.72;;;4.70;99.90;;;2.68;100.00;103042.69;6210123;23;20111;-80
2022/01/13 02:50:05;;;;;;;93.03;35.97;;;4.70;99.90;;;2.60;100.00;103028.75;6205714;22;20043;-83
2022/01/13 02:52:33;;;;;;;97.05;36.08;;;4.70;99.90;;;2.61;100.00;103027.78;6208967;23;20052;-83
2022/01/13 02:55:02;;;;;;;88.32;35.75;;;4.70;99.90;;;2.64;100.00;103038.41;6210019;23;20092;-83
2022/01/13 02:57:30;;;;;;;91.20;36.30;;;4.70;99.90;;;2.68;100.00;103032.81;6209838;23;20020;-83
2022/01/13 02:59:57;;;;;;;97.82;37.15;;;4.40;99.90;;;2.59;100.00;103038.63;6209972;23;20016;-83
2022/01/13 03:02:30;;;;;;;103.82;37.00;;;4.70;99.90;;;2.48;100.00;103024.81;6208842;23;20490;-83
2022/01/13 03:04:58;;;;;;;92.78;37.00;;;4.70;99.90;;;2.45;100.00;103030.31;6209808;23;20016;-83
2022/01/13 03:07:26;;;;;;;96.13;37.28;;;4.70;99.90;;;2.45;100.00;103033.00;6210546;23;20024;-83
2022/01/13 03:09:53;;;;;;;95.05;37.55;;;4.70;99.90;;;2.42;100.00;103035.81;6184855;23;20436;-83
2022/01/13 03:12:25;;;;;;;99.47;38.80;;;4.70;99.90;;;2.44;100.00;103028.56;6210701;23;20079;-83
2022/01/13 03:14:52;;;;;;;96.28;36.65;;;4.70;99.90;;;2.47;100.00;103031.97;6211844;23;20055;-83
2022/01/13 03:17:19;;;;;;;85.13;36.53;;;4.70;99.90;;;2.48;100.00;103020.28;6184811;23;20392;-83
2022/01/13 03:19:46;;;;;;;105.53;39.88;;;4.80;99.90;;;2.48;100.00;103027.50;6211985;23;20106;-83
2022/01/13 03:22:14;;;;;;;94.25;38.78;;;4.60;99.90;;;2.52;100.00;103026.41;6184142;23;20362;-83
2022/01/13 03:24:41;;;;;;;99.45;39.65;;;4.60;99.90;;;2.60;100.00;103021.53;6184911;23;20717;-83
2022/01/13 03:27:17;;;;;;;96.43;39.67;;;4.60;99.90;;;2.64;100.00;103025.81;6211823;23;20071;-83
2022/01/13 03:29:47;;;;;;;94.75;39.05;;;4.60;99.90;;;2.57;100.00;103029.75;6211650;23;20025;-82
2022/01/13 03:32:14;;;;;;;100.50;36.53;;;4.60;99.90;;;2.49;100.00;103027.41;6210803;23;20079;-83
2022/01/13 03:34:41;;;;;;;94.28;38.88;;;4.60;99.90;;;2.46;100.00;103030.25;6211043;23;20031;-83
2022/01/13 03:37:09;;;;;;;103.70;40.80;;;4.60;99.90;;;2.48;100.00;103025.66;6211717;23;20044;-83
2022/01/13 03:39:36;;;;;;;102.55;39.60;;;4.60;99.90;;;2.51;100.00;103024.66;6211335;23;20443;-83
2022/01/13 03:42:04;;;;;;;99.00;40.20;;;4.60;99.90;;;2.45;100.00;103033.84;6210798;23;20025;-83
2022/01/13 03:44:31;;;;;;;97.35;39.55;;;4.60;99.90;;;2.48;100.00;103031.03;6211321;23;20016;-82
2022/01/13 03:47:04;;;;;;;99.82;39.75;;;4.60;99.90;;;2.53;100.00;103028.13;6184629;23;20107;-83
2022/01/13 03:49:32;;;;;;;99.65;39.88;;;4.60;99.90;;;2.52;100.00;103026.41;6211170;23;20123;-83
2022/01/13 03:53:09;;;;;;;96.82;39.42;;;4.60;99.90;;;2.57;100.00;103037.81;6210589;23;20020;-83
2022/01/13 03:56:39;;;;;;;99.32;38.53;;;4.70;99.90;;;2.52;100.00;103040.72;6211448;23;20056;-83
2022/01/13 04:00:40;;;;;;;89.22;37.80;;;4.60;99.90;;;2.44;100.00;103039.31;6119037;23;20084;-83
2022/01/13 04:03:09;;;;;;;94.95;38.13;;;4.60;99.90;;;2.47;100.00;103034.66;6089001;23;20165;-83
2022/01/13 04:06:04;;;;;;;106.55;41.95;;;4.60;99.90;;;2.40;100.00;103032.31;6089968;23;20100;-83
2022/01/13 04:08:32;;;;;;;88.85;38.90;;;4.60;99.90;;;2.38;100.00;103012.72;6211338;23;20082;-83
2022/01/13 04:11:17;;;;;;;99.18;40.67;;;4.60;99.90;;;2.33;100.00;103007.56;6210941;23;20108;-83
2022/01/13 04:13:49;;;;;;;99.30;40.85;;;4.60;99.90;;;2.44;100.00;103018.69;6184491;23;20087;-82
2022/01/13 04:16:19;;;;;;;101.43;39.65;;;4.60;99.90;;;2.38;100.00;103005.53;6211009;23;20021;-83
2022/01/13 04:18:47;;;;;;;103.97;40.35;;;4.60;99.90;;;2.35;100.00;103006.53;6210701;23;20074;-83
2022/01/13 04:21:19;;;;;;;90.20;39.42;;;4.60;99.90;;;2.32;100.00;103000.41;6209993;23;20056;-82
2022/01/13 04:23:47;;;;;;;101.35;41.13;;;4.50;99.90;;;2.29;100.00;102998.75;6211263;23;20021;-83
2022/01/13 04:26:18;;;;;;;100.22;40.17;;;4.50;99.90;;;2.29;100.00;103004.13;6210798;23;20084;-83
2022/01/13 04:28:46;;;;;;;;;;;4.50;99.90;;;2.30;100.00;103007.69;6211700;23;20787;-83
2022/01/13 04:31:13;;;;;;;95.50;38.00;;;4.50;99.90;;;2.41;100.00;103007.19;6210045;23;20550;-83
2022/01/13 04:33:41;;;;;;;98.32;40.15;;;4.50;99.90;;;2.52;100.00;103004.91;6211026;23;20402;-83
2022/01/13 04:36:09;;;;;;;88.03;38.28;;;4.50;99.90;;;2.46;100.00;103007.88;6210834;23;20063;-83
2022/01/13 04:38:38;;;;;;;97.10;39.53;;;4.50;99.90;;;2.50;100.00;102998.72;6184432;23;20024;-82
2022/01/13 04:41:05;;;;;;;98.50;39.25;;;4.60;99.90;;;2.41;100.00;102997.31;6183133;23;20028;-83
2022/01/13 04:43:33;;;;;;;97.78;39.83;;;4.50;99.90;;;2.39;100.00;102999.22;6211125;23;20055;-83
2022/01/13 04:46:01;;;;;;;99.43;40.03;;;4.50;99.90;;;2.28;100.00;102990.75;6211062;23;20103;-83
2022/01/13 04:48:29;;;;;;;97.63;40.47;;;4.50;99.90;;;2.30;100.00;102992.44;6211050;23;20068;-83
2022/01/13 04:50:56;;;;;;;98.25;40.33;;;4.50;99.90;;;2.35;100.00;102990.41;6183811;23;20034;-83
2022/01/13 04:53:23;;;;;;;99.72;40.53;;;4.50;99.90;;;2.30;100.00;102984.41;6210252;23;20466;-83
2022/01/13 04:55:57;;;;;;;91.32;40.55;;;4.50;99.90;;;2.35;100.00;102987.72;6210795;23;20450;-83
2022/01/13 04:58:25;;;;;;;90.72;39.55;;;4.50;99.90;;;2.47;100.00;102985.41;6210553;23;20106;-83
2022/01/13 05:00:52;;;;;;;99.32;40.55;;;4.50;99.90;;;2.37;100.00;102979.59;6210380;23;20410;-84
2022/01/13 05:03:20;;;;;;;98.28;40.50;;;4.50;99.90;;;2.24;100.00;102981.97;6210120;23;20095;-83
2022/01/13 05:05:47;;;;;;;96.47;40.47;;;4.50;99.90;;;2.21;100.00;102976.75;6210790;23;20064;-82
2022/01/13 05:08:14;;;;;;;103.43;41.65;;;4.50;99.90;;;2.21;100.00;102973.16;6210746;23;20040;-83
2022/01/13 05:10:41;;;;;;;98.30;41.65;;;4.50;99.90;;;2.25;100.00;102964.06;6209878;23;20023;-84
2022/01/13 05:13:11;;;;;;;94.03;40.60;;;4.50;99.90;;;2.23;100.00;102971.28;6209700;23;20451;-87
2022/01/13 05:15:41;;;;;;;99.15;41.72;;;4.40;99.90;;;2.26;100.00;102972.00;6210692;23;20447;-83
2022/01/13 05:18:16;;;;;;;98.85;40.88;;;4.40;99.90;;;2.30;100.00;102979.03;6210645;23;20455;-83
2022/01/13 05:20:49;;;;;;;92.88;39.85;;;4.40;99.90;;;2.14;100.00;102984.19;6210759;23;20412;-83
2022/01/13 05:23:16;;;;;;;90.55;41.38;;;4.40;99.90;;;2.15;100.00;102987.75;6209640;23;20392;-83
2022/01/13 05:25:44;;;;;;;92.40;39.35;;;4.40;99.90;;;2.12;100.00;102988.75;6210664;23;20511;-83
2022/01/13 05:28:14;;;;;;;92.25;38.95;;;4.50;99.90;;;2.18;100.00;102984.94;6210256;23;20021;-83
2022/01/13 05:30:42;;;;;;;97.38;41.08;;;4.40;99.90;;;2.13;100.00;102986.94;6210291;23;20095;-83
2022/01/13 05:33:10;;;;;;;97.15;40.13;;;4.40;99.90;;;2.19;100.00;102986.69;6209451;23;20099;-83
2022/01/13 05:35:37;;;;;;;97.55;39.40;;;4.40;99.90;;;2.15;100.00;102994.00;6210216;23;20027;-83
2022/01/13 05:38:06;;;;;;;92.22;40.85;;;4.40;99.90;;;2.09;100.00;102985.34;6210309;23;20021;-83
2022/01/13 05:40:34;;;;;;;98.45;40.00;;;4.40;99.90;;;2.16;100.00;102984.13;6210134;23;20013;-85
2022/01/13 05:43:01;;;;;;;98.13;40.47;;;4.40;99.90;;;2.16;100.00;102981.44;6207977;23;20055;-84
2022/01/13 05:45:33;;;;;;;93.45;39.40;;;4.40;99.90;;;2.09;100.00;102972.78;6210091;23;20463;-83
2022/01/13 05:48:02;;;;;;;86.75;39.97;;;4.40;99.90;;;2.09;100.00;102980.84;6209810;23;20478;-84
2022/01/13 05:50:32;;;;;;;89.45;39.72;;;4.40;99.90;;;2.07;100.00;102971.09;6210126;23;20108;-83
2022/01/13 05:52:59;;;;;;;101.18;42.58;;;4.30;99.90;;;2.02;100.00;102973.13;6209431;23;20478;-84
2022/01/13 05:55:27;;;;;;;103.03;43.10;;;4.40;99.90;;;2.04;100.00;102966.75;6210004;23;20048;-83
2022/01/13 05:57:55;;;;;;;102.47;44.63;;;4.30;99.90;;;2.07;100.00;102963.91;6210512;23;20044;-83
2022/01/13 06:00:23;;;;;;;94.68;41.38;;;4.40;99.90;;;2.15;100.00;102963.56;6209882;23;20021;-85
2022/01/13 06:02:53;;;;;;;98.15;43.42;;;4.40;99.90;;;2.14;100.00;102967.22;6208617;23;20020;-84
2022/01/13 06:05:21;;;;;;;95.45;41.92;;;4.40;99.90;;;2.13;100.00;102971.72;6209933;23;20387;-83
2022/01/13 06:07:48;;;;;;;98.65;44.38;;;4.40;99.90;;;2.18;100.00;102973.31;6209983;23;20025;-82
2022/01/13 06:10:19;;;;;;;94.63;43.42;;;4.30;99.90;;;2.18;100.00;102966.13;6205642;23;20340;-82
2022/01/13 06:12:47;;;;;;;;;;;4.30;99.90;;;2.19;100.00;102970.56;6205065;23;20288;-82
2022/01/13 06:15:19;;;;;;;95.75;41.50;;;4.40;99.90;;;2.13;100.00;102979.78;6208571;23;20003;-81
2022/01/13 06:17:48;;;;;;;100.15;42.17;;;4.30;99.90;;;2.19;100.00;102975.06;6207598;23;20016;-82
2022/01/13 06:20:18;;;;;;;107.85;43.75;;;4.30;99.90;;;2.24;100.00;102979.28;6209988;23;20451;-81
2022/01/13 06:22:47;;;;;;;101.20;42.47;;;4.30;99.90;;;2.14;100.00;102980.66;6208934;23;20489;-82
2022/01/13 06:25:17;;;;;;;97.93;42.65;;;4.30;99.90;;;2.15;100.00;102980.59;6210173;23;20047;-81
2022/01/13 06:27:44;;;;;;;98.55;41.97;;;4.30;99.90;;;2.12;100.00;102985.22;6209938;23;20048;-81
2022/01/13 06:30:14;;;;;;;96.18;41.97;;;4.30;99.90;;;2.13;100.00;102978.88;6210470;23;20060;-81
2022/01/13 06:32:42;;;;;;;99.93;41.22;;;4.30;99.90;;;2.04;100.00;102982.00;6207635;23;20031;-81
2022/01/13 06:35:11;;;;;;;100.50;41.50;;;4.30;99.90;;;1.95;100.00;102984.13;6209255;23;20044;-81
2022/01/13 06:37:41;;;;;;;104.72;40.33;;;4.30;99.90;;;1.91;100.00;102989.72;6209919;23;20451;-81
2022/01/13 06:40:10;;;;;;;106.53;40.88;;;4.30;99.90;;;1.87;100.00;102975.56;6182969;23;20039;-81
2022/01/13 06:42:38;;;;;;;95.97;41.20;;;4.30;99.90;;;1.91;100.00;102973.63;6209821;23;20040;-81
2022/01/13 06:45:07;;;;;;;102.45;43.42;;;4.30;99.90;;;1.94;100.00;102966.28;6211766;23;20044;-81
2022/01/13 06:47:34;;;;;;;100.72;42.00;;;4.30;99.90;;;2.01;100.00;102974.06;6211859;23;20033;-81
2022/01/13 06:50:02;;;;;;;104.20;43.30;;;4.20;99.90;;;2.01;100.00;102971.38;6211446;23;20620;-82
2022/01/13 06:52:29;;;;;;;106.80;41.92;;;4.20;99.90;;;2.01;100.00;102971.38;6210339;23;20044;-81
2022/01/13 06:54:58;;;;;;;122.65;41.85;;;4.20;99.90;;;2.06;100.00;102980.13;6185048;23;20029;-82
2022/01/13 06:57:25;;;;;;;101.10;42.03;;;4.20;99.90;;;1.97;100.00;102986.75;6211671;23;20318;-81
2022/01/13 06:59:52;;;;;;;104.50;40.92;;;4.20;99.90;;;2.07;100.00;102981.84;6211672;23;20059;-81
2022/01/13 07:02:19;;;;;;;100.72;42.72;;;4.20;99.90;;;1.99;100.00;102973.28;6210531;23;20024;-81
2022/01/13 07:04:47;;;;;;;107.25;41.25;;;4.20;99.90;;;2.05;100.00;102967.63;6212037;23;20088;-83
2022/01/13 07:07:14;;;;;;;99.85;43.15;;;4.20;99.90;;;2.09;100.00;102969.22;6211931;23;20020;-81
2022/01/13 07:09:41;;;;;;;104.68;41.50;;;4.20;99.90;;;2.00;100.00;102973.22;6211657;23;20024;-80
2022/01/13 07:12:11;;;;;;;100.80;41.58;;;4.20;99.90;;;2.05;100.00;102968.47;6210664;23;20052;-80
2022/01/13 07:14:39;;;;;;;102.63;41.08;;;4.20;99.90;;;2.09;100.00;102969.22;6211601;23;20036;-81
2022/01/13 07:17:06;;;;;;;100.32;41.97;;;4.20;99.90;;;2.16;100.00;102965.31;6211237;23;20040;-81
2022/01/13 07:19:33;;;;;;;107.20;40.00;;;4.10;99.90;;;2.09;100.00;102967.41;6211341;23;20452;-81
2022/01/13 07:22:01;;;;;;;104.82;40.90;;;4.10;99.90;;;1.94;100.00;102970.78;6210513;23;20044;-81
2022/01/13 07:24:28;;;;;;;104.78;42.45;;;4.10;99.90;;;1.84;100.00;102973.00;6211365;23;20459;-81
2022/01/13 07:26:55;;;;;;;110.10;41.95;;;4.20;99.90;;;1.88;100.00;102981.78;6211258;23;20020;-82
2022/01/13 07:29:25;;;;;;;103.15;40.15;;;4.20;99.90;;;1.91;100.00;102981.66;6211238;23;20741;-81
2022/01/13 07:31:52;;;;;;;117.13;43.50;;;4.20;99.90;;;1.88;100.00;102996.06;6210546;23;20095;-81
2022/01/13 07:34:19;;;;;;;116.45;43.38;;;4.20;99.90;;;1.93;100.00;102990.53;6211872;23;20025;-81
2022/01/13 07:36:47;;;;;;;111.05;42.20;;;4.20;99.90;;;1.93;100.00;102991.38;6210991;23;20047;-81
2022/01/13 07:39:14;;;;;;;111.40;42.42;;;4.20;99.90;;;1.88;100.00;102997.91;6211482;23;20103;-81
2022/01/13 07:41:42;;;;;;;109.68;41.38;;;4.20;99.90;;;1.89;100.00;102989.78;6210417;23;20040;-81
2022/01/13 07:44:10;;;;;;;113.50;40.95;;;4.20;99.90;;;1.97;100.00;102999.31;6211322;23;20025;-81
2022/01/13 07:46:38;;;;;;;107.95;40.95;;;4.20;99.90;;;2.06;100.00;103006.97;6211433;23;20367;-81
2022/01/13 07:49:06;;;;;;;104.28;41.53;;;4.20;99.90;;;2.03;100.00;103012.47;6211037;23;20095;-81
2022/01/13 07:51:33;;;;;;;101.22;39.10;;;4.20;99.90;;;2.10;100.00;103004.06;6183482;23;20024;-81
2022/01/13 07:54:01;;;;;;;104.93;41.17;;;4.20;99.90;;;2.12;100.00;103012.06;6211096;23;20099;-81
2022/01/13 07:56:29;;;;;;;108.70;41.63;;;4.20;99.90;;;2.10;100.00;103013.97;6211313;23;20017;-81
2022/01/13 07:58:56;;;;;;;108.07;42.45;;;4.20;99.90;;;2.03;100.00;103010.66;6211068;23;20471;-81
2022/01/13 08:01:24;;;;;;;110.18;43.70;;;4.20;99.90;;;1.94;100.00;103011.06;6210106;23;20024;-81
2022/01/13 08:03:52;;;;;;;103.13;41.28;;;4.10;99.90;;;1.89;100.00;103002.34;6184547;23;20581;-83
2022/01/13 08:06:19;;;;;;;107.90;40.58;;;4.20;99.90;;;1.90;100.00;103010.31;6207152;23;20404;-81
2022/01/13 08:08:47;;;;;;;106.72;40.05;;;4.10;99.90;;;1.88;100.00;103008.63;6210334;23;20020;-82
2022/01/13 08:11:16;;;;;;;106.22;41.58;;;4.20;99.90;;;1.89;100.00;103008.56;6210122;23;20095;-82
2022/01/13 08:13:44;;;;;;;99.30;39.53;;;4.20;99.90;;;1.85;100.00;103012.34;6211169;23;20481;-83
2022/01/13 08:16:11;;;;;;;108.97;41.38;;;4.20;99.90;;;1.88;100.00;103012.19;6210531;23;20017;-82
2022/01/13 08:21:26;;;;;;;99.00;39.85;;;4.20;99.90;;;2.09;100.00;103007.69;6209245;23;20134;-83
2022/01/13 08:23:54;;;;;;;100.75;38.78;;;4.20;99.90;;;2.17;100.00;103010.06;6209628;23;20478;-83
2022/01/13 08:26:21;;;;;;;99.90;39.72;;;4.20;99.90;;;2.07;100.00;103014.09;6184448;23;20028;-83
2022/01/13 08:28:48;;;;;;;100.82;39.95;;;4.20;99.90;;;2.12;100.00;103012.06;6210735;23;20024;-83
2022/01/13 08:31:16;;;;;;;92.38;37.83;;;4.20;99.90;;;2.09;100.00;103017.56;6210142;23;20098;-83
2022/01/13 08:33:43;;;;;;;99.85;39.40;;;4.20;99.90;;;2.17;100.00;103004.69;6183801;23;20025;-83
2022/01/13 08:36:10;;;;;;;101.28;39.90;;;4.20;99.90;;;2.23;100.00;103009.78;6210989;23;20070;-83
2022/01/13 08:38:39;;;;;;;93.25;38.25;;;4.20;99.90;;;2.17;100.00;103010.06;6183739;23;20100;-83
2022/01/13 08:41:06;;;;;;;92.85;37.28;;;4.20;99.90;;;2.17;100.00;103010.06;6209662;23;20071;-83
2022/01/13 08:43:36;;;;;;;101.13;39.65;;;4.20;99.90;;;2.28;100.00;103012.25;6210893;23;20028;-83
2022/01/13 08:46:04;;;;;;;97.95;37.63;;;4.20;99.90;;;2.26;100.00;103004.25;6210456;23;20040;-83
2022/01/13 08:48:31;;;;;;;96.18;38.47;;;4.30;99.90;;;2.23;100.00;103012.47;6210590;23;20074;-83
2022/01/13 08:50:59;;;;;;;99.28;38.05;;;4.30;99.90;;;2.28;100.00;103015.81;6210290;23;20020;-83
2022/01/13 08:53:28;;;;;;;92.90;39.10;;;4.30;99.90;;;2.32;100.00;103028.19;6184023;23;20059;-83
2022/01/13 08:55:58;;;;;;;101.05;37.80;;;4.30;99.90;;;2.38;100.00;103020.78;6210361;23;20044;-83
2022/01/13 08:58:26;;;;;;;101.90;40.00;;;4.30;99.90;;;2.43;100.00;103032.19;6211157;23;20726;-82
2022/01/13 09:00:56;;;;;;;96.43;38.75;;;4.30;99.90;;;2.43;100.00;103032.19;6175870;22;20211;-86
2022/01/13 09:03:23;;;;;;;95.93;38.53;;;4.30;99.90;;;2.47;100.00;103033.78;6177085;23;20025;-80
2022/01/13 09:05:51;;;;;;;92.72;37.47;;;4.40;99.90;;;2.51;100.00;103047.03;6180293;23;20024;-78
2022/01/13 09:08:18;;;;;;;97.15;39.85;;;4.40;99.90;;;2.53;100.00;103038.88;6179278;23;20021;-82
2022/01/13 09:10:46;;;;;;;99.90;40.03;;;4.40;99.90;;;2.45;100.00;103041.06;6180478;23;20348;-80
2022/01/13 09:13:16;;;;;;;99.13;39.35;;;4.40;99.90;;;2.47;100.00;103033.78;6179570;23;20104;-81
2022/01/13 09:15:47;;;;;;;105.13;39.30;;;4.40;99.90;;;2.41;100.00;103037.63;6180474;23;20028;-80
2022/01/13 09:18:31;;;;;;;106.25;39.85;;;4.50;99.90;;;2.51;100.00;103040.78;6179953;23;20095;-81
2022/01/13 09:20:59;;;;;;;99.40;39.50;;;4.70;99.90;;;2.52;100.00;103043.41;6180387;23;20035;-81
2022/01/13 09:23:26;;;;;;;100.00;39.22;;;4.50;99.90;;;2.44;100.00;103042.88;6180398;23;20416;-81
2022/01/13 09:25:54;;;;;;;99.57;38.38;;;4.50;99.90;;;2.40;100.00;103045.75;6180738;23;20025;-81
2022/01/13 09:28:23;;;;;;;104.13;40.38;;;4.50;99.90;;;2.39;100.00;103054.78;6179223;23;20025;-81
2022/01/13 09:30:50;;;;;;;100.65;39.72;;;4.50;99.90;;;2.46;100.00;103050.88;6178368;23;20037;-81
2022/01/13 09:33:18;;;;;;;101.30;41.53;;;4.60;99.90;;;2.38;100.00;103039.56;6179478;23;20021;-81
2022/01/13 09:35:45;;;;;;;98.75;39.13;;;4.60;99.90;;;2.38;100.00;103042.25;6180350;23;20025;-81
2022/01/13 09:38:13;;;;;;;102.22;40.13;;;4.60;99.90;;;2.42;100.00;103036.69;6178918;23;20104;-81
2022/01/13 09:40:42;;;;;;;103.38;42.20;;;4.60;99.90;;;2.41;100.00;103040.31;6180203;23;20107;-81
2022/01/13 09:43:10;;;;;;;105.95;41.42;;;4.60;99.90;;;2.43;100.00;103043.81;6179151;23;20100;-81
2022/01/13 09:45:39;;;;;;;103.78;41.47;;;4.60;99.90;;;2.57;100.00;103043.19;6179210;23;20021;-81
2022/01/13 09:48:07;;;;;;;111.25;42.25;;;4.60;99.90;;;2.57;100.00;103055.75;6179823;23;20017;-81
2022/01/13 09:50:34;;;;;;;103.32;42.13;;;4.60;99.90;;;2.61;100.00;103058.25;6179895;23;20029;-80
2022/01/13 09:53:01;;;;;;;118.40;44.40;;;4.60;99.90;;;2.62;100.00;103054.59;6179176;23;20460;-81
2022/01/13 09:55:29;;;;;;;108.40;43.17;;;4.70;99.90;;;2.51;100.00;103056.91;6180260;23;20081;-80
2022/01/13 09:58:00;;;;;;;103.68;42.90;;;4.70;99.90;;;2.59;100.00;103059.25;6180015;23;20075;-81
2022/01/13 10:00:27;;;;;;;103.43;41.63;;;4.70;99.90;;;2.67;100.00;103057.97;6186789;23;20090;-80
2022/01/13 10:02:56;;;;;;;100.70;42.22;;;4.70;99.90;;;2.62;100.00;103051.91;6209017;23;20055;-81
2022/01/13 10:05:24;;;;;;;106.18;43.28;;;4.80;99.90;;;2.69;100.00;103060.59;6209706;23;20518;-80
2022/01/13 10:07:53;;;;;;;110.25;43.70;;;4.70;99.90;;;2.71;100.00;103050.63;6209997;23;20020;-81
2022/01/13 10:10:24;;;;;;;107.38;44.35;;;4.80;99.90;;;2.83;100.00;103054.56;6183520;23;20028;-80
2022/01/13 10:13:04;;;;;;;108.07;42.72;;;4.80;99.90;;;2.87;100.00;103051.63;6209026;23;20078;-81
2022/01/13 10:18:41;;;;;;;109.10;43.83;;;4.90;99.90;;;2.94;100.00;103055.78;6209391;23;20056;-80
2022/01/13 10:21:11;;;;;;;99.70;42.63;;;4.80;99.90;;;2.89;100.00;103055.16;6208825;23;20016;-80
2022/01/13 10:23:38;;;;;;;115.55;45.25;;;4.90;99.90;;;2.95;100.00;103045.91;6210157;23;20355;-81
2022/01/13 10:26:14;;;;;;;106.63;44.95;;;4.90;99.90;;;3.05;100.00;103046.38;6210159;23;20030;-81
2022/01/13 10:28:51;;;;;;;108.50;44.45;;;4.90;99.90;;;3.02;100.00;103047.34;6209924;23;20044;-81